DAL1071 KSLC-KBZN
Flight info
| Callsign | DAL1071 |
|---|---|
| Flight time | 1h 5m |
| Altitude | 36000 |
| Route | RUGGD3 HOLTR SABAT LOSST1 |
| Aircraft | BCS3/M-SBDE2E3GIRWXY/LB1 |
Departure
| Time | 2026-05-06 21:47 |
|---|---|
| Airport | Salt Lake City International Airport (KSLC) |
Arrival
| Time | 2026-05-06 22:52 |
|---|---|
| Airport | Bozeman Yellowstone International Airport (KBZN) |
| Time | Latitude | Longitude | Altitude | Speed | Heading |
|---|---|---|---|---|---|
| 2026-05-06 21:16 | 40.78666 | -111.98003 | 4235 ft | 0 kts | 175° |
| 2026-05-06 21:35 | 40.78681 | -111.98004 | 4235 ft | 4 kts | 175° |
| 2026-05-06 21:36 | 40.78707 | -111.98009 | 4235 ft | 4 kts | 162° |
| 2026-05-06 21:36 | 40.78730 | -111.98024 | 4235 ft | 4 kts | 124° |
| 2026-05-06 21:36 | 40.78735 | -111.98045 | 4235 ft | 0 kts | 84° |
| 2026-05-06 21:39 | 40.78736 | -111.98031 | 4235 ft | 6 kts | 84° |
| 2026-05-06 21:40 | 40.78746 | -111.97907 | 4235 ft | 19 kts | 85° |
| 2026-05-06 21:40 | 40.78755 | -111.97746 | 4235 ft | 16 kts | 89° |
| 2026-05-06 21:40 | 40.78687 | -111.97673 | 4235 ft | 13 kts | 172° |
| 2026-05-06 21:40 | 40.78601 | -111.97663 | 4235 ft | 12 kts | 176° |
| 2026-05-06 21:41 | 40.78519 | -111.97654 | 4235 ft | 12 kts | 175° |
| 2026-05-06 21:41 | 40.78442 | -111.97645 | 4235 ft | 10 kts | 175° |
| 2026-05-06 21:41 | 40.78376 | -111.97637 | 4235 ft | 9 kts | 174° |
| 2026-05-06 21:41 | 40.78316 | -111.97629 | 4235 ft | 10 kts | 174° |
| 2026-05-06 21:42 | 40.78239 | -111.97621 | 4235 ft | 11 kts | 175° |
| 2026-05-06 21:42 | 40.78165 | -111.97613 | 4235 ft | 10 kts | 175° |
| 2026-05-06 21:42 | 40.78102 | -111.97606 | 4234 ft | 8 kts | 175° |
| 2026-05-06 21:42 | 40.78052 | -111.97601 | 4234 ft | 6 kts | 175° |
| 2026-05-06 21:43 | 40.78008 | -111.97596 | 4234 ft | 7 kts | 173° |
| 2026-05-06 21:43 | 40.77953 | -111.97582 | 4235 ft | 9 kts | 164° |
| 2026-05-06 21:43 | 40.77889 | -111.97547 | 4233 ft | 10 kts | 157° |
| 2026-05-06 21:43 | 40.77850 | -111.97530 | 4234 ft | 8 kts | 166° |
| 2026-05-06 21:44 | 40.77800 | -111.97521 | 4233 ft | 7 kts | 174° |
| 2026-05-06 21:44 | 40.77710 | -111.97510 | 4235 ft | 17 kts | 175° |
| 2026-05-06 21:44 | 40.77587 | -111.97496 | 4235 ft | 19 kts | 175° |
| 2026-05-06 21:44 | 40.77464 | -111.97469 | 4235 ft | 10 kts | 143° |
| 2026-05-06 21:45 | 40.77450 | -111.97418 | 4235 ft | 8 kts | 81° |
| 2026-05-06 21:45 | 40.77480 | -111.97361 | 4235 ft | 7 kts | 44° |
| 2026-05-06 21:45 | 40.77517 | -111.97330 | 4235 ft | 5 kts | 22° |
| 2026-05-06 21:45 | 40.77536 | -111.97327 | 4235 ft | 0 kts | 360° |
| 2026-05-06 21:46 | 40.77830 | -111.97356 | 4235 ft | 88 kts | 354° |
| 2026-05-06 21:46 | 40.78709 | -111.97469 | 4236 ft | 162 kts | 355° |
| 2026-05-06 21:46 | 40.79973 | -111.97582 | 4627 ft | 191 kts | 351° |
| 2026-05-06 21:47 | 40.81322 | -111.97738 | 5604 ft | 194 kts | 349° |
| 2026-05-06 21:47 | 40.82671 | -111.97911 | 6548 ft | 197 kts | 351° |
| 2026-05-06 21:47 | 40.84093 | -111.98100 | 6886 ft | 218 kts | 352° |
| 2026-05-06 21:47 | 40.85685 | -111.98320 | 7232 ft | 242 kts | 351° |
| 2026-05-06 21:48 | 40.87441 | -111.98607 | 7642 ft | 266 kts | 351° |
| 2026-05-06 21:48 | 40.89319 | -111.98936 | 8313 ft | 276 kts | 351° |
| 2026-05-06 21:48 | 40.91241 | -111.99276 | 9113 ft | 281 kts | 351° |
| 2026-05-06 21:48 | 40.93197 | -111.99622 | 9928 ft | 286 kts | 351° |
| 2026-05-06 21:49 | 40.95213 | -111.99979 | 10463 ft | 302 kts | 351° |
| 2026-05-06 21:49 | 40.97369 | -112.00362 | 10740 ft | 324 kts | 351° |
| 2026-05-06 21:49 | 40.99646 | -112.00755 | 11303 ft | 333 kts | 353° |
| 2026-05-06 21:49 | 41.01975 | -112.00601 | 12052 ft | 340 kts | 11° |
| 2026-05-06 21:50 | 41.04187 | -111.99454 | 12873 ft | 345 kts | 28° |
| 2026-05-06 21:50 | 41.06039 | -111.97403 | 13644 ft | 353 kts | 46° |
| 2026-05-06 21:50 | 41.07342 | -111.94607 | 14403 ft | 360 kts | 60° |
| 2026-05-06 21:50 | 41.08399 | -111.91598 | 15134 ft | 361 kts | 61° |
| 2026-05-06 21:51 | 41.09452 | -111.88570 | 15840 ft | 363 kts | 60° |
| 2026-05-06 21:51 | 41.10511 | -111.85520 | 16503 ft | 365 kts | 60° |
| 2026-05-06 21:51 | 41.11663 | -111.82524 | 17159 ft | 362 kts | 52° |
| 2026-05-06 21:51 | 41.13215 | -111.79913 | 17827 ft | 359 kts | 41° |
| 2026-05-06 21:52 | 41.15086 | -111.77827 | 18489 ft | 355 kts | 30° |
| 2026-05-06 21:52 | 41.17244 | -111.76274 | 19123 ft | 353 kts | 19° |
| 2026-05-06 21:52 | 41.19591 | -111.75334 | 19724 ft | 352 kts | 9° |
| 2026-05-06 21:52 | 41.22015 | -111.74767 | 20307 ft | 355 kts | 8° |
| 2026-05-06 21:53 | 41.24457 | -111.74197 | 20892 ft | 358 kts | 8° |
| 2026-05-06 21:53 | 41.26915 | -111.73617 | 21462 ft | 360 kts | 9° |
| 2026-05-06 21:53 | 41.29389 | -111.73029 | 21966 ft | 362 kts | 9° |
| 2026-05-06 21:53 | 41.31883 | -111.72431 | 22468 ft | 364 kts | 9° |
| 2026-05-06 21:54 | 41.34389 | -111.71833 | 22900 ft | 367 kts | 9° |
| 2026-05-06 21:54 | 41.36909 | -111.71236 | 23390 ft | 369 kts | 8° |
| 2026-05-06 21:54 | 41.39436 | -111.70565 | 23837 ft | 372 kts | 13° |
| 2026-05-06 21:54 | 41.41932 | -111.69597 | 24276 ft | 375 kts | 14° |
| 2026-05-06 21:55 | 41.44446 | -111.68613 | 24705 ft | 377 kts | 14° |
| 2026-05-06 21:55 | 41.46971 | -111.67621 | 25141 ft | 379 kts | 14° |
| 2026-05-06 21:55 | 41.49512 | -111.66622 | 25516 ft | 382 kts | 14° |
| 2026-05-06 21:55 | 41.52073 | -111.65615 | 25921 ft | 384 kts | 14° |
| 2026-05-06 21:56 | 41.54606 | -111.64619 | 26303 ft | 386 kts | 14° |
| 2026-05-06 21:56 | 41.57186 | -111.63605 | 26675 ft | 387 kts | 14° |
| 2026-05-06 21:56 | 41.59779 | -111.62587 | 27050 ft | 389 kts | 14° |
| 2026-05-06 21:56 | 41.62387 | -111.61565 | 27406 ft | 391 kts | 14° |
| 2026-05-06 21:57 | 41.65005 | -111.60538 | 27741 ft | 393 kts | 14° |
| 2026-05-06 21:57 | 41.67633 | -111.59505 | 28091 ft | 395 kts | 14° |
| 2026-05-06 21:57 | 41.70275 | -111.58463 | 28435 ft | 396 kts | 14° |
| 2026-05-06 21:57 | 41.72930 | -111.57409 | 28733 ft | 398 kts | 14° |
| 2026-05-06 21:58 | 41.75592 | -111.56354 | 29030 ft | 400 kts | 14° |
| 2026-05-06 21:58 | 41.78264 | -111.55295 | 29302 ft | 401 kts | 14° |
| 2026-05-06 21:58 | 41.80986 | -111.54451 | 29547 ft | 401 kts | 8° |
| 2026-05-06 21:58 | 41.83745 | -111.53837 | 29830 ft | 403 kts | 8° |
| 2026-05-06 21:59 | 41.86513 | -111.53216 | 30117 ft | 404 kts | 8° |
| 2026-05-06 21:59 | 41.89294 | -111.52589 | 30364 ft | 405 kts | 8° |
| 2026-05-06 21:59 | 41.92076 | -111.51960 | 30587 ft | 407 kts | 8° |
| 2026-05-06 21:59 | 41.94865 | -111.51329 | 30891 ft | 406 kts | 8° |
| 2026-05-06 22:00 | 41.97648 | -111.50699 | 31207 ft | 404 kts | 8° |
| 2026-05-06 22:00 | 42.00416 | -111.50071 | 31484 ft | 404 kts | 8° |
| 2026-05-06 22:00 | 42.03186 | -111.49440 | 31770 ft | 403 kts | 7° |
| 2026-05-06 22:00 | 42.05948 | -111.48814 | 32063 ft | 402 kts | 7° |
| 2026-05-06 22:01 | 42.08702 | -111.48188 | 32350 ft | 401 kts | 7° |
| 2026-05-06 22:01 | 42.11454 | -111.47562 | 32651 ft | 401 kts | 7° |
| 2026-05-06 22:01 | 42.14196 | -111.46935 | 32949 ft | 399 kts | 7° |
| 2026-05-06 22:01 | 42.16898 | -111.46315 | 33238 ft | 398 kts | 7° |
| 2026-05-06 22:02 | 42.19628 | -111.45690 | 33536 ft | 397 kts | 7° |
| 2026-05-06 22:02 | 42.22351 | -111.45067 | 33813 ft | 396 kts | 7° |
| 2026-05-06 22:02 | 42.25067 | -111.44450 | 34099 ft | 395 kts | 7° |
| 2026-05-06 22:02 | 42.27783 | -111.43838 | 34380 ft | 394 kts | 6° |
| 2026-05-06 22:03 | 42.30506 | -111.43511 | 34647 ft | 391 kts | 358° |
| 2026-05-06 22:03 | 42.33213 | -111.43760 | 34888 ft | 390 kts | 353° |
| 2026-05-06 22:03 | 42.35915 | -111.44131 | 35122 ft | 390 kts | 354° |
| 2026-05-06 22:03 | 42.38623 | -111.44487 | 35361 ft | 390 kts | 354° |
| 2026-05-06 22:04 | 42.41328 | -111.44837 | 35596 ft | 390 kts | 354° |
| 2026-05-06 22:04 | 42.44031 | -111.45184 | 35816 ft | 390 kts | 354° |
| 2026-05-06 22:04 | 42.46730 | -111.45537 | 36031 ft | 389 kts | 354° |
| 2026-05-06 22:04 | 42.49425 | -111.45895 | 36151 ft | 389 kts | 354° |
| 2026-05-06 22:05 | 42.54810 | -111.46610 | 36170 ft | 388 kts | 354° |
| 2026-05-06 22:05 | 42.60188 | -111.47318 | 36165 ft | 388 kts | 354° |
| 2026-05-06 22:06 | 42.65562 | -111.48031 | 36163 ft | 388 kts | 354° |
| 2026-05-06 22:06 | 42.70936 | -111.48745 | 36164 ft | 388 kts | 354° |
| 2026-05-06 22:07 | 42.76313 | -111.49460 | 36167 ft | 388 kts | 354° |
| 2026-05-06 22:07 | 42.81695 | -111.50169 | 36170 ft | 388 kts | 354° |
| 2026-05-06 22:08 | 42.87037 | -111.50886 | 36168 ft | 388 kts | 353° |
| 2026-05-06 22:08 | 42.92422 | -111.51615 | 36166 ft | 388 kts | 353° |
| 2026-05-06 22:09 | 42.97801 | -111.52339 | 36164 ft | 388 kts | 353° |
| 2026-05-06 22:09 | 43.03180 | -111.53056 | 36160 ft | 388 kts | 353° |
| 2026-05-06 22:10 | 43.08551 | -111.53774 | 36158 ft | 388 kts | 353° |
| 2026-05-06 22:10 | 43.13894 | -111.54508 | 36154 ft | 388 kts | 353° |
| 2026-05-06 22:11 | 43.19258 | -111.55236 | 36151 ft | 388 kts | 353° |
| 2026-05-06 22:11 | 43.24635 | -111.55961 | 36151 ft | 388 kts | 353° |
| 2026-05-06 22:12 | 43.30012 | -111.56683 | 36152 ft | 388 kts | 353° |
| 2026-05-06 22:12 | 43.35386 | -111.57418 | 36155 ft | 388 kts | 353° |
| 2026-05-06 22:13 | 43.40759 | -111.58157 | 36154 ft | 388 kts | 353° |
| 2026-05-06 22:13 | 43.46135 | -111.58887 | 36153 ft | 388 kts | 353° |
| 2026-05-06 22:14 | 43.51516 | -111.59618 | 36152 ft | 389 kts | 353° |
| 2026-05-06 22:14 | 43.56898 | -111.60352 | 36157 ft | 389 kts | 353° |
| 2026-05-06 22:15 | 43.62252 | -111.61084 | 36152 ft | 389 kts | 353° |
| 2026-05-06 22:15 | 43.67638 | -111.61825 | 36158 ft | 389 kts | 353° |
| 2026-05-06 22:16 | 43.73038 | -111.62566 | 36154 ft | 390 kts | 352° |
| 2026-05-06 22:16 | 43.78442 | -111.63321 | 36155 ft | 390 kts | 352° |
| 2026-05-06 22:17 | 43.83846 | -111.64071 | 36153 ft | 390 kts | 352° |
| 2026-05-06 22:17 | 43.89250 | -111.64808 | 36147 ft | 390 kts | 352° |
| 2026-05-06 22:18 | 43.94652 | -111.65554 | 36142 ft | 390 kts | 352° |
| 2026-05-06 22:18 | 44.00073 | -111.66048 | 36142 ft | 393 kts | 1° |
| 2026-05-06 22:19 | 44.05414 | -111.64197 | 36144 ft | 403 kts | 19° |
| 2026-05-06 22:19 | 44.10492 | -111.61003 | 36131 ft | 403 kts | 19° |
| 2026-05-06 22:20 | 44.15601 | -111.57790 | 36133 ft | 403 kts | 19° |
| 2026-05-06 22:20 | 44.20718 | -111.54578 | 36134 ft | 403 kts | 19° |
| 2026-05-06 22:21 | 44.25824 | -111.51352 | 36144 ft | 403 kts | 19° |
| 2026-05-06 22:21 | 44.30940 | -111.48112 | 35172 ft | 408 kts | 19° |
| 2026-05-06 22:22 | 44.33542 | -111.46469 | 34156 ft | 413 kts | 19° |
| 2026-05-06 22:22 | 44.36154 | -111.44819 | 33331 ft | 412 kts | 19° |
| 2026-05-06 22:22 | 44.38766 | -111.43164 | 32416 ft | 412 kts | 19° |
| 2026-05-06 22:22 | 44.41387 | -111.41501 | 31455 ft | 414 kts | 19° |
| 2026-05-06 22:23 | 44.44016 | -111.39833 | 30577 ft | 414 kts | 19° |
| 2026-05-06 22:23 | 44.46614 | -111.38181 | 30029 ft | 406 kts | 19° |
| 2026-05-06 22:23 | 44.49168 | -111.36551 | 29428 ft | 401 kts | 19° |
| 2026-05-06 22:23 | 44.51687 | -111.34940 | 28836 ft | 395 kts | 19° |
| 2026-05-06 22:24 | 44.54176 | -111.33348 | 28253 ft | 390 kts | 19° |
| 2026-05-06 22:24 | 44.56632 | -111.31777 | 27685 ft | 386 kts | 19° |
| 2026-05-06 22:24 | 44.59063 | -111.30221 | 27125 ft | 382 kts | 19° |
| 2026-05-06 22:24 | 44.61468 | -111.28685 | 26561 ft | 377 kts | 19° |
| 2026-05-06 22:25 | 44.63840 | -111.27168 | 26006 ft | 373 kts | 20° |
| 2026-05-06 22:25 | 44.66191 | -111.25661 | 25466 ft | 369 kts | 19° |
| 2026-05-06 22:25 | 44.68521 | -111.24167 | 24931 ft | 366 kts | 19° |
| 2026-05-06 22:25 | 44.70793 | -111.22710 | 24420 ft | 362 kts | 19° |
| 2026-05-06 22:26 | 44.73076 | -111.21239 | 23899 ft | 359 kts | 20° |
| 2026-05-06 22:26 | 44.75333 | -111.19790 | 23419 ft | 355 kts | 20° |
| 2026-05-06 22:26 | 44.77570 | -111.18356 | 22945 ft | 351 kts | 20° |
| 2026-05-06 22:26 | 44.79785 | -111.16938 | 22486 ft | 347 kts | 19° |
| 2026-05-06 22:27 | 44.81970 | -111.15535 | 22061 ft | 342 kts | 19° |
| 2026-05-06 22:27 | 44.84121 | -111.14147 | 21637 ft | 338 kts | 19° |
| 2026-05-06 22:27 | 44.86249 | -111.12764 | 21231 ft | 334 kts | 19° |
| 2026-05-06 22:27 | 44.88350 | -111.11400 | 20830 ft | 331 kts | 19° |
| 2026-05-06 22:28 | 44.90430 | -111.10056 | 20423 ft | 328 kts | 19° |
| 2026-05-06 22:28 | 44.92504 | -111.08716 | 20019 ft | 327 kts | 19° |
| 2026-05-06 22:28 | 44.94568 | -111.07379 | 19609 ft | 326 kts | 19° |
| 2026-05-06 22:28 | 44.96620 | -111.06047 | 19194 ft | 324 kts | 20° |
| 2026-05-06 22:29 | 44.98666 | -111.04718 | 18776 ft | 323 kts | 19° |
| 2026-05-06 22:29 | 45.00672 | -111.03420 | 18355 ft | 321 kts | 19° |
| 2026-05-06 22:29 | 45.02700 | -111.02102 | 17907 ft | 321 kts | 20° |
| 2026-05-06 22:29 | 45.04707 | -111.00791 | 17597 ft | 314 kts | 19° |
| 2026-05-06 22:30 | 45.06658 | -110.99512 | 17467 ft | 304 kts | 19° |
| 2026-05-06 22:30 | 45.08551 | -110.98272 | 17232 ft | 298 kts | 19° |
| 2026-05-06 22:30 | 45.10426 | -110.97050 | 16988 ft | 295 kts | 19° |
| 2026-05-06 22:30 | 45.12323 | -110.96041 | 17001 ft | 288 kts | 9° |
| 2026-05-06 22:31 | 45.14308 | -110.95688 | 17040 ft | 288 kts | 356° |
| 2026-05-06 22:31 | 45.16268 | -110.96037 | 16828 ft | 282 kts | 345° |
| 2026-05-06 22:31 | 45.17538 | -110.96470 | 16695 ft | 283 kts | 345° |
| 2026-05-06 22:31 | 45.19450 | -110.97114 | 16518 ft | 283 kts | 345° |
| 2026-05-06 22:32 | 45.21991 | -110.97961 | 16282 ft | 283 kts | 345° |
| 2026-05-06 22:32 | 45.23911 | -110.98599 | 16102 ft | 284 kts | 345° |
| 2026-05-06 22:32 | 45.25207 | -110.99031 | 15974 ft | 283 kts | 345° |
| 2026-05-06 22:32 | 45.27109 | -110.99670 | 15806 ft | 284 kts | 345° |
| 2026-05-06 22:33 | 45.29044 | -111.00317 | 15631 ft | 282 kts | 344° |
| 2026-05-06 22:33 | 45.30927 | -111.00946 | 15444 ft | 282 kts | 345° |
| 2026-05-06 22:33 | 45.32843 | -111.01583 | 15284 ft | 282 kts | 345° |
| 2026-05-06 22:33 | 45.34753 | -111.02219 | 15113 ft | 282 kts | 344° |
| 2026-05-06 22:34 | 45.36667 | -111.02856 | 14938 ft | 282 kts | 345° |
| 2026-05-06 22:34 | 45.38577 | -111.03497 | 14764 ft | 281 kts | 344° |
| 2026-05-06 22:34 | 45.40490 | -111.04137 | 14589 ft | 282 kts | 344° |
| 2026-05-06 22:34 | 45.42398 | -111.04775 | 14403 ft | 281 kts | 344° |
| 2026-05-06 22:35 | 45.44302 | -111.05412 | 14232 ft | 281 kts | 344° |
| 2026-05-06 22:35 | 45.46211 | -111.06055 | 14061 ft | 282 kts | 344° |
| 2026-05-06 22:35 | 45.48119 | -111.06697 | 13870 ft | 282 kts | 344° |
| 2026-05-06 22:35 | 45.50029 | -111.07340 | 13694 ft | 282 kts | 344° |
| 2026-05-06 22:36 | 45.51932 | -111.07982 | 13511 ft | 281 kts | 344° |
| 2026-05-06 22:36 | 45.53839 | -111.08623 | 13333 ft | 281 kts | 344° |
| 2026-05-06 22:36 | 45.55743 | -111.09261 | 13150 ft | 281 kts | 344° |
| 2026-05-06 22:36 | 45.57647 | -111.09899 | 12950 ft | 281 kts | 344° |
| 2026-05-06 22:37 | 45.59554 | -111.10535 | 12532 ft | 282 kts | 343° |
| 2026-05-06 22:37 | 45.61460 | -111.11172 | 12146 ft | 281 kts | 343° |
| 2026-05-06 22:37 | 45.63335 | -111.12213 | 12004 ft | 302 kts | 324° |
| 2026-05-06 22:37 | 45.64726 | -111.14244 | 12007 ft | 278 kts | 301° |
| 2026-05-06 22:38 | 45.65596 | -111.16582 | 12023 ft | 260 kts | 296° |
| 2026-05-06 22:38 | 45.66385 | -111.18919 | 12029 ft | 262 kts | 296° |
| 2026-05-06 22:38 | 45.67169 | -111.21266 | 12024 ft | 262 kts | 296° |
| 2026-05-06 22:38 | 45.67954 | -111.23619 | 12019 ft | 262 kts | 296° |
| 2026-05-06 22:39 | 45.68739 | -111.25975 | 12018 ft | 262 kts | 296° |
| 2026-05-06 22:39 | 45.69522 | -111.28329 | 12018 ft | 262 kts | 296° |
| 2026-05-06 22:39 | 45.70304 | -111.30688 | 12020 ft | 263 kts | 296° |
| 2026-05-06 22:39 | 45.71086 | -111.33048 | 12019 ft | 262 kts | 296° |
| 2026-05-06 22:40 | 45.71865 | -111.35407 | 12018 ft | 262 kts | 296° |
| 2026-05-06 22:40 | 45.72642 | -111.37763 | 12018 ft | 261 kts | 296° |
| 2026-05-06 22:40 | 45.73420 | -111.40115 | 12023 ft | 262 kts | 296° |
| 2026-05-06 22:40 | 45.74199 | -111.42473 | 12025 ft | 262 kts | 296° |
| 2026-05-06 22:41 | 45.75748 | -111.47179 | 12030 ft | 261 kts | 296° |
| 2026-05-06 22:41 | 45.76521 | -111.49529 | 12027 ft | 261 kts | 296° |
| 2026-05-06 22:41 | 45.77295 | -111.51878 | 12033 ft | 261 kts | 296° |
| 2026-05-06 22:42 | 45.78060 | -111.54205 | 12043 ft | 261 kts | 296° |
| 2026-05-06 22:42 | 45.78832 | -111.56555 | 12045 ft | 260 kts | 296° |
| 2026-05-06 22:42 | 45.79604 | -111.58901 | 11953 ft | 262 kts | 296° |
| 2026-05-06 22:42 | 45.80387 | -111.61275 | 11557 ft | 264 kts | 296° |
| 2026-05-06 22:43 | 45.81173 | -111.63637 | 11153 ft | 259 kts | 297° |
| 2026-05-06 22:43 | 45.82205 | -111.65672 | 10746 ft | 252 kts | 321° |
| 2026-05-06 22:43 | 45.83771 | -111.66698 | 10341 ft | 249 kts | 350° |
| 2026-05-06 22:43 | 45.85519 | -111.66476 | 9956 ft | 258 kts | 13° |
| 2026-05-06 22:44 | 45.87247 | -111.65696 | 9553 ft | 262 kts | 17° |
| 2026-05-06 22:44 | 45.88979 | -111.64870 | 9142 ft | 262 kts | 17° |
| 2026-05-06 22:44 | 45.90664 | -111.63863 | 8736 ft | 264 kts | 34° |
| 2026-05-06 22:44 | 45.91882 | -111.61916 | 8340 ft | 265 kts | 64° |
| 2026-05-06 22:45 | 45.92320 | -111.59369 | 7942 ft | 264 kts | 87° |
| 2026-05-06 22:45 | 45.92347 | -111.56725 | 7543 ft | 265 kts | 91° |
| 2026-05-06 22:45 | 45.92324 | -111.54070 | 7234 ft | 263 kts | 91° |
| 2026-05-06 22:45 | 45.92296 | -111.51541 | 7210 ft | 244 kts | 91° |
| 2026-05-06 22:46 | 45.92214 | -111.49146 | 7225 ft | 241 kts | 101° |
| 2026-05-06 22:46 | 45.91908 | -111.46877 | 7258 ft | 219 kts | 102° |
| 2026-05-06 22:46 | 45.91639 | -111.44875 | 7228 ft | 197 kts | 102° |
| 2026-05-06 22:46 | 45.91389 | -111.43024 | 7206 ft | 184 kts | 102° |
| 2026-05-06 22:47 | 45.91149 | -111.41256 | 7221 ft | 179 kts | 102° |
| 2026-05-06 22:47 | 45.90911 | -111.39511 | 7233 ft | 177 kts | 102° |
| 2026-05-06 22:47 | 45.90674 | -111.37774 | 7239 ft | 177 kts | 102° |
| 2026-05-06 22:47 | 45.90438 | -111.36058 | 7224 ft | 170 kts | 102° |
| 2026-05-06 22:48 | 45.90211 | -111.34418 | 7241 ft | 164 kts | 102° |
| 2026-05-06 22:48 | 45.89911 | -111.32839 | 7228 ft | 162 kts | 114° |
| 2026-05-06 22:48 | 45.89313 | -111.31483 | 7198 ft | 160 kts | 134° |
| 2026-05-06 22:48 | 45.88549 | -111.30316 | 7054 ft | 160 kts | 136° |
| 2026-05-06 22:49 | 45.87774 | -111.29195 | 6876 ft | 160 kts | 137° |
| 2026-05-06 22:49 | 45.86988 | -111.28080 | 6676 ft | 159 kts | 137° |
| 2026-05-06 22:49 | 45.86200 | -111.26972 | 6445 ft | 158 kts | 137° |
| 2026-05-06 22:49 | 45.85420 | -111.25878 | 6247 ft | 156 kts | 137° |
| 2026-05-06 22:50 | 45.84640 | -111.24787 | 6044 ft | 156 kts | 137° |
| 2026-05-06 22:50 | 45.83860 | -111.23697 | 5851 ft | 156 kts | 138° |
| 2026-05-06 22:50 | 45.83097 | -111.22634 | 5633 ft | 152 kts | 138° |
| 2026-05-06 22:50 | 45.82334 | -111.21569 | 5417 ft | 153 kts | 134° |
| 2026-05-06 22:51 | 45.81569 | -111.20496 | 5222 ft | 154 kts | 135° |
| 2026-05-06 22:51 | 45.80802 | -111.19428 | 5018 ft | 153 kts | 134° |
| 2026-05-06 22:51 | 45.80038 | -111.18365 | 4824 ft | 153 kts | 134° |
| 2026-05-06 22:51 | 45.79279 | -111.17306 | 4611 ft | 152 kts | 135° |
| 2026-05-06 22:52 | 45.78539 | -111.16270 | 4493 ft | 147 kts | 134° |
| 2026-05-06 22:52 | 45.77852 | -111.15280 | 4480 ft | 99 kts | 135° |
| 2026-05-06 22:52 | 45.77620 | -111.14929 | 4485 ft | 16 kts | 121° |
| 2026-05-06 22:52 | 45.77547 | -111.14875 | 4483 ft | 10 kts | 192° |
| 2026-05-06 22:53 | 45.77500 | -111.14944 | 4482 ft | 10 kts | 231° |
| 2026-05-06 22:53 | 45.77464 | -111.15000 | 4481 ft | 0 kts | 225° |
| 2026-05-06 22:54 | 45.77463 | -111.15000 | 4481 ft | 1 kts | 225° |
| 2026-05-06 22:54 | 45.77436 | -111.15040 | 4481 ft | 6 kts | 227° |
| 2026-05-06 22:55 | 45.77421 | -111.15086 | 4481 ft | 4 kts | 260° |
| 2026-05-06 22:55 | 45.77425 | -111.15119 | 4481 ft | 3 kts | 290° |
| 2026-05-06 22:55 | 45.77431 | -111.15136 | 4481 ft | 1 kts | 302° |
| 2026-05-06 22:55 | 45.77441 | -111.15153 | 4481 ft | 6 kts | 311° |
| 2026-05-06 22:56 | 45.77491 | -111.15225 | 4481 ft | 14 kts | 315° |
| 2026-05-06 22:56 | 45.77564 | -111.15327 | 4481 ft | 16 kts | 316° |
| 2026-05-06 22:56 | 45.77647 | -111.15440 | 4483 ft | 17 kts | 316° |
| 2026-05-06 22:56 | 45.77728 | -111.15555 | 4481 ft | 16 kts | 315° |
| 2026-05-06 22:57 | 45.77812 | -111.15672 | 4481 ft | 18 kts | 316° |
| 2026-05-06 22:57 | 45.77902 | -111.15796 | 4481 ft | 17 kts | 316° |
| 2026-05-06 22:57 | 45.77938 | -111.15888 | 4481 ft | 8 kts | 265° |
| 2026-05-06 22:57 | 45.77900 | -111.15913 | 4481 ft | 6 kts | 170° |
| 2026-05-06 22:58 | 45.77870 | -111.15890 | 4483 ft | 4 kts | 145° |
| 2026-05-06 22:58 | 45.77836 | -111.15848 | 4481 ft | 8 kts | 137° |
| 2026-05-06 22:58 | 45.77831 | -111.15842 | 4481 ft | 0 kts | 146° |
| 2026-05-06 22:59 | 45.77815 | -111.15828 | 4484 ft | 6 kts | 147° |
| 2026-05-06 22:59 | 45.77786 | -111.15822 | 4481 ft | 3 kts | 204° |
| 2026-05-06 22:59 | 45.77767 | -111.15854 | 4485 ft | 5 kts | 242° |
| 2026-05-06 22:59 | 45.77766 | -111.15900 | 4481 ft | 4 kts | 276° |
| 2026-05-06 23:00 | 45.77767 | -111.15913 | 4481 ft | 0 kts | 276° |